^^
Station Historical Data
Daily Summary for March 23, 2021 Units:  English    Metric   Both
Daily Weekly Monthly Yearly
  High: Low: Average:
Temperature: 63.2 °F 43.6 °F 53.3 °F
Dew Point: 45.2 °F 35.1 °F 41 °F
Humidity: 80% 39% 64%
Wind Speed: 6mph 0mph 2.1mph
Wind Gust: 7mph - -
Wind- - SSE
Pressure: 30.07 in 29.88 in -
Precipitation: 0.00 in    
 
 
Tabular Data for March 23, 2021
Time Temperature Dew Point Pressure Wind Wind Speed Wind Gust Humidity Rainfall Rate (Hourly) solar
00:00 48.8 °F 41.6 °F 30.06 in SSW 1 mph 1 mph 76% 0.00 in 0 W/m2
00:05 48.8 °F 41.2 °F 30.06 in SSW 1 mph 1 mph 75% 0.00 in 0 W/m2
00:10 48.7 °F 41.5 °F 30.06 in SSW 1 mph 2 mph 76% 0.00 in 0 W/m2
00:15 48.8 °F 41.6 °F 30.06 in SSW 1 mph 2 mph 76% 0.00 in 0 W/m2
00:20 48.7 °F 41.1 °F 30.06 in SW 1 mph 2 mph 75% 0.00 in 0 W/m2
00:25 48.8 °F 40.5 °F 30.06 in SSW 1 mph 2 mph 73% 0.00 in 0 W/m2
00:30 49.2 °F 40.9 °F 30.06 in SE 1 mph 1 mph 73% 0.00 in 0 W/m2
00:35 49.5 °F 40.8 °F 30.06 in SSE 1 mph 1 mph 72% 0.00 in 0 W/m2
00:40 49.7 °F 41.4 °F 30.06 in SSW 1 mph 1 mph 73% 0.00 in 0 W/m2
00:45 49.7 °F 41.4 °F 30.06 in SSW 1 mph 1 mph 73% 0.00 in 0 W/m2
00:50 49.7 °F 41.4 °F 30.06 in South 1 mph 1 mph 73% 0.00 in 0 W/m2
00:55 49.6 °F 41.7 °F 30.07 in South 1 mph 1 mph 74% 0.00 in 0 W/m2
01:00 49.5 °F 40.8 °F 30.07 in SSE 1 mph 2 mph 72% 0.00 in 0 W/m2
01:05 49.6 °F 40.9 °F 30.07 in South 1 mph 2 mph 72% 0.00 in 0 W/m2
01:10 49.7 °F 41 °F 30.07 in South 1 mph 1 mph 72% 0.00 in 0 W/m2
01:15 49.6 °F 40.9 °F 30.07 in South 1 mph 1 mph 72% 0.00 in 0 W/m2
01:20 49.5 °F 40.5 °F 30.07 in Calm     71% 0.00 in 0 W/m2
01:25 49.4 °F 40.4 °F 30.07 in South 1 mph 1 mph 71% 0.00 in 0 W/m2
01:30 49.2 °F 40.9 °F 30.07 in South 1 mph 2 mph 73% 0.00 in 0 W/m2
01:35 49.1 °F 40.8 °F 30.07 in SSE 1 mph 2 mph 73% 0.00 in 0 W/m2
01:40 49.1 °F 40.5 °F 30.06 in South 1 mph 1 mph 72% 0.00 in 0 W/m2
01:45 49 °F 40.4 °F 30.06 in South 1 mph 1 mph 72% 0.00 in 0 W/m2
01:50 48.9 °F 40.3 °F 30.07 in Calm   1 mph 72% 0.00 in 0 W/m2
01:55 48.7 °F 40.1 °F 30.07 in Calm   1 mph 72% 0.00 in 0 W/m2
02:00 48.5 °F 39.9 °F 30.07 in Calm     72% 0.00 in 0 W/m2
02:05 48.4 °F 39.8 °F 30.07 in Calm     72% 0.00 in 0 W/m2
02:10 48.2 °F 40.3 °F 30.07 in NW 1 mph 1 mph 74% 0.00 in 0 W/m2
02:15 48 °F 40.5 °F 30.07 in SSW 1 mph 1 mph 75% 0.00 in 0 W/m2
02:20 47.8 °F 40.3 °F 30.07 in SSW 1 mph 2 mph 75% 0.00 in 0 W/m2
02:25 47.7 °F 39.8 °F 30.07 in South 1 mph 2 mph 74% 0.00 in 0 W/m2
02:30 47.9 °F 40 °F 30.07 in South 1 mph 1 mph 74% 0.00 in 0 W/m2
02:35 47.9 °F 40 °F 30.07 in SE 1 mph 1 mph 74% 0.00 in 0 W/m2
02:40 47.8 °F 39.6 °F 30.07 in SE 1 mph 1 mph 73% 0.00 in 0 W/m2
02:45 47.8 °F 39.6 °F 30.07 in SE 1 mph 1 mph 73% 0.00 in 0 W/m2
02:50 47.8 °F 39.6 °F 30.07 in Calm     73% 0.00 in 0 W/m2
02:55 47.7 °F 39.5 °F 30.07 in Calm     73% 0.00 in 0 W/m2
03:00 47.8 °F 39.9 °F 30.07 in Calm   1 mph 74% 0.00 in 0 W/m2
03:05 47.7 °F 39.5 °F 30.07 in Calm   1 mph 73% 0.00 in 0 W/m2
03:10 47.8 °F 39.9 °F 30.07 in Calm     74% 0.00 in 0 W/m2
03:15 47.8 °F 39.9 °F 30.07 in Calm   1 mph 74% 0.00 in 0 W/m2
03:20 47.8 °F 39.9 °F 30.07 in Calm     74% 0.00 in 0 W/m2
03:25 47.8 °F 39.6 °F 30.06 in Calm   1 mph 73% 0.00 in 0 W/m2
03:30 47.9 °F 39.3 °F 30.06 in South 1 mph 1 mph 72% 0.00 in 0 W/m2
03:35 47.9 °F 39.3 °F 30.07 in South 1 mph 2 mph 72% 0.00 in 0 W/m2
03:40 47.9 °F 38.9 °F 30.06 in NW 2 mph 2 mph 71% 0.00 in 0 W/m2
03:45 47.8 °F 39.2 °F 30.06 in NW 2 mph 2 mph 72% 0.00 in 0 W/m2
03:50 47.2 °F 38.6 °F 30.06 in NNE 2 mph 2 mph 72% 0.00 in 0 W/m2
03:55 46.5 °F 38.3 °F 30.06 in NNE 2 mph 2 mph 73% 0.00 in 0 W/m2
04:00 45.8 °F 38 °F 30.06 in NNE 2 mph 2 mph 74% 0.00 in 0 W/m2
04:05 45.3 °F 37.8 °F 30.06 in NNE 1 mph 2 mph 75% 0.00 in 0 W/m2
04:10 44.9 °F 37.8 °F 30.06 in NNE 1 mph 1 mph 76% 0.00 in 0 W/m2
04:15 44.4 °F 37.3 °F 30.06 in NNE 1 mph 1 mph 76% 0.00 in 0 W/m2
04:20 44.2 °F 37.4 °F 30.06 in North 2 mph 2 mph 77% 0.00 in 0 W/m2
04:25 43.9 °F 37.5 °F 30.06 in North 1 mph 2 mph 78% 0.00 in 0 W/m2
04:30 43.7 °F 37.3 °F 30.06 in Calm     78% 0.00 in 0 W/m2
04:35 43.6 °F 37.5 °F 30.06 in Calm     79% 0.00 in 0 W/m2
04:40 43.6 °F 37.5 °F 30.06 in Calm     79% 0.00 in 0 W/m2
04:45 43.6 °F 37.5 °F 30.06 in Calm     79% 0.00 in 0 W/m2
04:50 43.6 °F 37.5 °F 30.06 in Calm     79% 0.00 in 0 W/m2
04:55 43.6 °F 37.5 °F 30.06 in Calm     79% 0.00 in 0 W/m2
05:00 43.7 °F 37.6 °F 30.06 in Calm     79% 0.00 in 0 W/m2
05:05 43.8 °F 37.7 °F 30.06 in Calm   1 mph 79% 0.00 in 0 W/m2
05:10 44 °F 37.6 °F 30.06 in Calm   1 mph 78% 0.00 in 0 W/m2
05:15 44.3 °F 37.5 °F 30.05 in North 1 mph 1 mph 77% 0.00 in 0 W/m2
05:20 44.5 °F 37.7 °F 30.05 in North 1 mph 1 mph 77% 0.00 in 0 W/m2
05:25 44.8 °F 37.7 °F 30.05 in North 1 mph 1 mph 76% 0.00 in 0 W/m2
05:30 44.9 °F 37.8 °F 30.05 in SE 1 mph 1 mph 76% 0.00 in 0 W/m2
05:35 45.4 °F 38.3 °F 30.04 in SE 1 mph 1 mph 76% 0.00 in 0 W/m2
05:40 46.1 °F 39.9 °F 30.05 in West 1 mph 1 mph 79% 0.00 in 0 W/m2
05:45 46.7 °F 40.9 °F 30.05 in WSW 1 mph 1 mph 80% 0.00 in 0 W/m2
05:50 47 °F 40.8 °F 30.05 in Calm   1 mph 79% 0.00 in 0 W/m2
05:55 47.1 °F 40.9 °F 30.05 in SW 1 mph 2 mph 79% 0.00 in 0 W/m2
06:00 47.2 °F 41 °F 30.05 in South 2 mph 2 mph 79% 0.00 in 0 W/m2
06:05 47.2 °F 41 °F 30.05 in South 1 mph 2 mph 79% 0.00 in 0 W/m2
06:10 47.3 °F 41.1 °F 30.05 in South 1 mph 1 mph 79% 0.00 in 0 W/m2
06:15 47.3 °F 41.1 °F 30.05 in South 1 mph 1 mph 79% 0.00 in 0 W/m2
06:20 47.2 °F 41.3 °F 30.05 in Calm     80% 0.00 in 0 W/m2
06:25 47.2 °F 41.3 °F 30.05 in Calm   1 mph 80% 0.00 in 0 W/m2
06:30 47.2 °F 41.3 °F 30.05 in SSE 1 mph 2 mph 80% 0.00 in 0 W/m2
06:35 47.2 °F 41 °F 30.06 in SSE 1 mph 2 mph 79% 0.00 in 0 W/m2
06:40 47.2 °F 41.3 °F 30.05 in SSE 1 mph 1 mph 80% 0.00 in 0 W/m2
06:45 47.1 °F 40.9 °F 30.05 in SSE 1 mph 1 mph 79% 0.00 in 0 W/m2
06:50 47.1 °F 40.3 °F 30.05 in SSE 1 mph 3 mph 77% 0.00 in 0 W/m2
06:55 47.1 °F 39.9 °F 30.05 in SSE 2 mph 3 mph 76% 0.00 in 0 W/m2
07:00 47.2 °F 39.3 °F 30.05 in SSE 2 mph 2 mph 74% 0.00 in 0 W/m2
07:05 47.4 °F 39.9 °F 30.05 in SSE 1 mph 2 mph 75% 0.00 in 0 W/m2
07:10 47.6 °F 40.1 °F 30.05 in SSE 1 mph 2 mph 75% 0.00 in 0 W/m2
07:15 47.6 °F 39.7 °F 30.05 in SSE 2 mph 2 mph 74% 0.00 in 0 W/m2
07:20 47.8 °F 39.6 °F 30.05 in SE 1 mph 3 mph 73% 0.00 in 0 W/m2
07:25 47.9 °F 39.3 °F 30.05 in SE 1 mph 3 mph 72% 0.00 in 0 W/m2
07:30 48 °F 39.4 °F 30.05 in SE 1 mph 2 mph 72% 0.00 in 0 W/m2
07:35 48.1 °F 38.8 °F 30.05 in SE 2 mph 2 mph 70% 0.00 in 0 W/m2
07:40 48.3 °F 39 °F 30.05 in SE 2 mph 2 mph 70% 0.00 in 7 W/m2
07:45 48.3 °F 39.3 °F 30.05 in SE 1 mph 2 mph 71% 0.00 in 9 W/m2
07:50 48.4 °F 39.8 °F 30.05 in SE 2 mph 2 mph 72% 0.00 in 14 W/m2
07:55 48.5 °F 39.9 °F 30.05 in East 2 mph 3 mph 72% 0.00 in 14 W/m2
08:00 48.6 °F 39.6 °F 30.05 in ESE 2 mph 2 mph 71% 0.00 in 18 W/m2
08:05 48.6 °F 39.6 °F 30.05 in ESE 2 mph 2 mph 71% 0.00 in 18 W/m2
08:10 48.7 °F 39.7 °F 30.05 in SE 2 mph 2 mph 71% 0.00 in 19 W/m2
08:15 48.7 °F 39.4 °F 30.05 in ESE 2 mph 3 mph 70% 0.00 in 25 W/m2
08:20 48.8 °F 39.8 °F 30.05 in ESE 2 mph 4 mph 71% 0.00 in 28 W/m2
08:25 48.8 °F 40.2 °F 30.05 in SE 3 mph 4 mph 72% 0.00 in 32 W/m2
08:30 48.8 °F 39.1 °F 30.05 in SE 3 mph 4 mph 69% 0.00 in 39 W/m2
08:35 48.9 °F 39.2 °F 30.05 in SE 3 mph 4 mph 69% 0.00 in 44 W/m2
08:40 49.1 °F 39.7 °F 30.05 in SE 3 mph 4 mph 70% 0.00 in 46 W/m2
08:45 49.2 °F 40.9 °F 30.05 in SE 3 mph 4 mph 73% 0.00 in 49 W/m2
08:50 49.1 °F 39.4 °F 30.05 in SE 3 mph 3 mph 69% 0.00 in 60 W/m2
08:55 49.3 °F 40.3 °F 30.05 in SE 3 mph 3 mph 71% 0.00 in 67 W/m2
09:00 49.4 °F 40.7 °F 30.05 in SE 3 mph 4 mph 72% 0.00 in 70 W/m2
09:05 49.4 °F 40 °F 30.05 in SE 2 mph 4 mph 70% 0.00 in 77 W/m2
09:10 49.6 °F 39.8 °F 30.05 in SE 2 mph 4 mph 69% 0.00 in 76 W/m2
09:15 49.7 °F 39.2 °F 30.05 in ESE 2 mph 4 mph 67% 0.00 in 70 W/m2
09:20 49.8 °F 39.7 °F 30.05 in SE 3 mph 3 mph 68% 0.00 in 77 W/m2
09:25 49.9 °F 40.1 °F 30.05 in SE 3 mph 3 mph 69% 0.00 in 105 W/m2
09:30 50 °F 40.2 °F 30.05 in SE 3 mph 3 mph 69% 0.00 in 114 W/m2
09:35 50.2 °F 40.4 °F 30.05 in SE 2 mph 3 mph 69% 0.00 in 123 W/m2
09:40 50.3 °F 40.1 °F 30.05 in SE 2 mph 2 mph 68% 0.00 in 116 W/m2
09:45 50.2 °F 41.5 °F 30.05 in SE 2 mph 2 mph 72% 0.00 in 118 W/m2
09:50 50 °F 41.3 °F 30.05 in South 1 mph 2 mph 72% 0.00 in 109 W/m2
09:55 49.9 °F 40.9 °F 30.05 in SSE 2 mph 2 mph 71% 0.00 in 114 W/m2
10:00 49.8 °F 40.8 °F 30.05 in SSE 2 mph 2 mph 71% 0.00 in 141 W/m2
10:05 49.8 °F 41.1 °F 30.05 in Calm   2 mph 72% 0.00 in 185 W/m2
10:10 49.8 °F 40.8 °F 30.05 in SSE 1 mph 1 mph 71% 0.00 in 202 W/m2
10:15 49.9 °F 40.1 °F 30.05 in SSE 1 mph 1 mph 69% 0.00 in 197 W/m2
10:20 50.1 °F 39.6 °F 30.05 in SSE 1 mph 2 mph 67% 0.00 in 197 W/m2
10:25 50.5 °F 40.3 °F 30.05 in SSE 2 mph 2 mph 68% 0.00 in 181 W/m2
10:30 50.8 °F 41 °F 30.05 in SSE 1 mph 1 mph 69% 0.00 in 188 W/m2
10:35 50.9 °F 40.7 °F 30.05 in Calm   1 mph 68% 0.00 in 207 W/m2
10:40 51.2 °F 40.6 °F 30.05 in Calm     67% 0.00 in 216 W/m2
10:45 51.4 °F 41.6 °F 30.05 in SSE 1 mph 1 mph 69% 0.00 in 220 W/m2
10:50 51.4 °F 39.6 °F 30.05 in South 1 mph 1 mph 64% 0.00 in 294 W/m2
10:55 52.1 °F 41.1 °F 30.05 in SE 1 mph 1 mph 66% 0.00 in 304 W/m2
11:00 51.9 °F 40.9 °F 30.05 in SSE 1 mph 2 mph 66% 0.00 in 350 W/m2
11:05 52.1 °F 40.3 °F 30.05 in ENE 2 mph 2 mph 64% 0.00 in 345 W/m2
11:10 52.1 °F 40.7 °F 30.05 in South 2 mph 2 mph 65% 0.00 in 290 W/m2
11:15 51.4 °F 40.4 °F 30.05 in SSW 1 mph 2 mph 66% 0.00 in 272 W/m2
11:20 51.5 °F 41.7 °F 30.05 in SSW 1 mph 1 mph 69% 0.00 in 304 W/m2
11:25 52.1 °F 41.5 °F 30.05 in Calm   1 mph 67% 0.00 in 315 W/m2
11:30 52.6 °F 39.1 °F 30.05 in Calm   1 mph 60% 0.00 in 237 W/m2
11:35 52.9 °F 39.8 °F 30.05 in Calm   1 mph 61% 0.00 in 204 W/m2
11:40 53.1 °F 39.6 °F 30.05 in Calm     60% 0.00 in 373 W/m2
11:45 54.6 °F 39.2 °F 30.05 in Calm     56% 0.00 in 489 W/m2
11:50 55.9 °F 39.5 °F 30.05 in Calm     54% 0.00 in 478 W/m2
11:55 56.4 °F 38 °F 30.05 in Calm   1 mph 50% 0.00 in 373 W/m2
12:00 57.1 °F 37.6 °F 30.04 in SSW 1 mph 1 mph 48% 0.00 in 244 W/m2
12:05 57.4 °F 36.8 °F 30.04 in Calm   1 mph 46% 0.00 in 278 W/m2
12:10 57.8 °F 36.6 °F 30.04 in Calm     45% 0.00 in 381 W/m2
12:15 58.5 °F 36.1 °F 30.04 in Calm     43% 0.00 in 401 W/m2
12:20 59.1 °F 36 °F 30.03 in Calm     42% 0.00 in 396 W/m2
12:25 60.2 °F 35.1 °F 30.03 in SSW 1 mph 1 mph 39% 0.00 in 515 W/m2
12:30 60.5 °F 37.9 °F 30.03 in SSW 1 mph 1 mph 43% 0.00 in 378 W/m2
12:35 60.4 °F 35.9 °F 30.03 in SSW 1 mph 1 mph 40% 0.00 in 353 W/m2
12:40 59.8 °F 38.4 °F 30.03 in SSW 1 mph 1 mph 45% 0.00 in 397 W/m2
12:45 59.1 °F 39.4 °F 30.03 in NNE 1 mph 2 mph 48% 0.00 in 311 W/m2
12:50 58.5 °F 39.9 °F 30.03 in NNW 1 mph 1 mph 50% 0.00 in 288 W/m2
12:55 57.3 °F 39.3 °F 30.02 in North 1 mph 1 mph 51% 0.00 in 343 W/m2
13:00 56.9 °F 40.4 °F 30.02 in WSW 1 mph 1 mph 54% 0.00 in 353 W/m2
13:05 56.1 °F 39.7 °F 30.02 in WSW 1 mph 1 mph 54% 0.00 in 301 W/m2
13:10 55.5 °F 41 °F 30.02 in WSW 1 mph 1 mph 58% 0.00 in 271 W/m2
13:15 55.5 °F 40.5 °F 30.01 in SSW 1 mph 1 mph 57% 0.00 in 432 W/m2
13:20 56 °F 41 °F 30.01 in WNW 1 mph 2 mph 57% 0.00 in 288 W/m2
13:25 56.3 °F 41.7 °F 30.01 in NNW 1 mph 2 mph 58% 0.00 in 438 W/m2
13:30 56.6 °F 41.1 °F 30.01 in WNW 1 mph 2 mph 56% 0.00 in 445 W/m2
13:35 56.9 °F 41.4 °F 30.01 in South 1 mph 2 mph 56% 0.00 in 626 W/m2
13:40 58.7 °F 40.1 °F 30.00 in ENE 2 mph 2 mph 50% 0.00 in 686 W/m2
13:45 59.7 °F 41 °F 30.00 in ESE 2 mph 2 mph 50% 0.00 in 758 W/m2
13:50 59.9 °F 40.1 °F 30.00 in West 2 mph 2 mph 48% 0.00 in 485 W/m2
13:55 60.3 °F 42.1 °F 30.00 in NW 2 mph 2 mph 51% 0.00 in 775 W/m2
14:00 59 °F 40.9 °F 30.00 in East 2 mph 4 mph 51% 0.00 in 315 W/m2
14:05 60.1 °F 40.9 °F 30.00 in ESE 3 mph 4 mph 49% 0.00 in 374 W/m2
14:10 58.9 °F 42.8 °F 30.00 in NNW 3 mph 3 mph 55% 0.00 in 366 W/m2
14:15 58.7 °F 41.1 °F 30.00 in West 2 mph 3 mph 52% 0.00 in 325 W/m2
14:20 59.1 °F 41 °F 29.99 in NNW 2 mph 4 mph 51% 0.00 in 464 W/m2
14:25 59.8 °F 41.6 °F 29.99 in NW 2 mph 4 mph 51% 0.00 in 540 W/m2
14:30 59.1 °F 42 °F 29.98 in WSW 2 mph 3 mph 53% 0.00 in 385 W/m2
14:35 57.6 °F 41.5 °F 29.98 in South 2 mph 3 mph 55% 0.00 in 471 W/m2
14:40 58.2 °F 42.1 °F 29.98 in SSE 2 mph 2 mph 55% 0.00 in 425 W/m2
14:45 58.6 °F 42.5 °F 29.97 in SW 2 mph 2 mph 55% 0.00 in 668 W/m2
14:50 59.1 °F 43.4 °F 29.97 in SSE 2 mph 4 mph 56% 0.00 in 322 W/m2
14:55 59.9 °F 41.2 °F 29.96 in SSW 2 mph 4 mph 50% 0.00 in 353 W/m2
15:00 61 °F 40.6 °F 29.96 in WNW 3 mph 4 mph 47% 0.00 in 355 W/m2
15:05 60.5 °F 41.2 °F 29.95 in SE 3 mph 4 mph 49% 0.00 in 330 W/m2
15:10 59.9 °F 41.2 °F 29.95 in SE 2 mph 4 mph 50% 0.00 in 318 W/m2
15:15 59.7 °F 42.5 °F 29.95 in SE 2 mph 4 mph 53% 0.00 in 330 W/m2
15:20 59.4 °F 42.3 °F 29.94 in SE 2 mph 2 mph 53% 0.00 in 287 W/m2
15:25 60.3 °F 42.6 °F 29.94 in SE 3 mph 3 mph 52% 0.00 in 575 W/m2
15:30 61 °F 44.2 °F 29.94 in SE 3 mph 3 mph 54% 0.00 in 633 W/m2
15:35 60.5 °F 42.8 °F 29.93 in South 3 mph 3 mph 52% 0.00 in 580 W/m2
15:40 60.4 °F 41.1 °F 29.93 in SSE 2 mph 2 mph 49% 0.00 in 638 W/m2
15:45 62 °F 42.1 °F 29.93 in ESE 2 mph 3 mph 48% 0.00 in 605 W/m2
15:50 61.6 °F 41.7 °F 29.93 in East 2 mph 2 mph 48% 0.00 in 577 W/m2
15:55 62.9 °F 40.6 °F 29.93 in SE 3 mph 4 mph 44% 0.00 in 596 W/m2
16:00 62.7 °F 41.6 °F 29.92 in South 5 mph 6 mph 46% 0.00 in 575 W/m2
16:05 62.3 °F 42.3 °F 29.92 in SE 5 mph 6 mph 48% 0.00 in 538 W/m2
16:10 62.3 °F 41.8 °F 29.92 in SE 4 mph 4 mph 47% 0.00 in 483 W/m2
16:15 62.2 °F 42.3 °F 29.92 in East 4 mph 4 mph 48% 0.00 in 554 W/m2
16:20 61.9 °F 42 °F 29.92 in SSE 3 mph 3 mph 48% 0.00 in 578 W/m2
16:25 62.1 °F 42.2 °F 29.91 in SE 3 mph 4 mph 48% 0.00 in 584 W/m2
16:30 61.9 °F 42 °F 29.91 in ESE 3 mph 3 mph 48% 0.00 in 598 W/m2
16:35 61.8 °F 42.4 °F 29.91 in SE 3 mph 3 mph 49% 0.00 in 605 W/m2
16:40 60.5 °F 42.8 °F 29.91 in SSE 3 mph 4 mph 52% 0.00 in 366 W/m2
16:45 61 °F 42.2 °F 29.91 in West 3 mph 4 mph 50% 0.00 in 195 W/m2
16:50 60.8 °F 43.1 °F 29.91 in SSW 3 mph 3 mph 52% 0.00 in 301 W/m2
16:55 61 °F 42.7 °F 29.91 in East 3 mph 3 mph 51% 0.00 in 308 W/m2
17:00 63.2 °F 40.9 °F 29.90 in SSE 4 mph 5 mph 44% 0.00 in 353 W/m2
17:05 61.7 °F 42.9 °F 29.90 in WSW 4 mph 5 mph 50% 0.00 in 452 W/m2
17:10 61.3 °F 42 °F 29.90 in ESE 3 mph 4 mph 49% 0.00 in 359 W/m2
17:15 63.1 °F 42.5 °F 29.90 in SE 4 mph 7 mph 47% 0.00 in 439 W/m2
17:20 62.1 °F 39.9 °F 29.90 in South 4 mph 5 mph 44% 0.00 in 334 W/m2
17:25 61.9 °F 42 °F 29.90 in SE 4 mph 7 mph 48% 0.00 in 432 W/m2
17:30 62.7 °F 41 °F 29.89 in SE 4 mph 5 mph 45% 0.00 in 367 W/m2
17:35 61.4 °F 42.1 °F 29.89 in WNW 4 mph 5 mph 49% 0.00 in 338 W/m2
17:40 60.2 °F 42 °F 29.89 in NE 3 mph 3 mph 51% 0.00 in 301 W/m2
17:45 60.4 °F 42.2 °F 29.90 in SSW 3 mph 5 mph 51% 0.00 in 367 W/m2
17:50 61.5 °F 41.6 °F 29.89 in East 4 mph 4 mph 48% 0.00 in 316 W/m2
17:55 61.7 °F 40.1 °F 29.89 in SE 4 mph 4 mph 45% 0.00 in 197 W/m2
18:00 61.5 °F 40.5 °F 29.89 in WNW 5 mph 5 mph 46% 0.00 in 90 W/m2
18:05 60.7 °F 41.4 °F 29.89 in ESE 4 mph 5 mph 49% 0.00 in 160 W/m2
18:10 60.6 °F 42.9 °F 29.89 in NE 3 mph 3 mph 52% 0.00 in 130 W/m2
18:15 59.8 °F 42.1 °F 29.89 in NNW 3 mph 3 mph 52% 0.00 in 174 W/m2
18:20 59.3 °F 42.6 °F 29.89 in ENE 3 mph 5 mph 54% 0.00 in 141 W/m2
18:25 59.5 °F 42.3 °F 29.89 in NW 3 mph 5 mph 53% 0.00 in 72 W/m2
18:30 59.2 °F 42.1 °F 29.89 in South 4 mph 4 mph 53% 0.00 in 58 W/m2
18:35 59 °F 42.4 °F 29.89 in West 4 mph 4 mph 54% 0.00 in 49 W/m2
18:40 58.7 °F 42.6 °F 29.89 in ENE 3 mph 4 mph 55% 0.00 in 51 W/m2
18:45 58.4 °F 43.2 °F 29.89 in SE 3 mph 4 mph 57% 0.00 in 54 W/m2
18:50 58.3 °F 42.7 °F 29.89 in NW 3 mph 3 mph 56% 0.00 in 54 W/m2
18:55 58.3 °F 43.6 °F 29.89 in SW 2 mph 3 mph 58% 0.00 in 51 W/m2
19:00 58.6 °F 42.9 °F 29.89 in SSE 3 mph 3 mph 56% 0.00 in 47 W/m2
19:05 58.7 °F 43.5 °F 29.89 in ESE 3 mph 3 mph 57% 0.00 in 44 W/m2
19:10 58.3 °F 43.6 °F 29.89 in SE 3 mph 3 mph 58% 0.00 in 39 W/m2
19:15 57.8 °F 44 °F 29.89 in SE 3 mph 3 mph 60% 0.00 in 33 W/m2
19:20 57 °F 44.9 °F 29.89 in SE 3 mph 6 mph 64% 0.00 in 28 W/m2
19:25 57.4 °F 44.1 °F 29.90 in SE 5 mph 7 mph 61% 0.00 in 21 W/m2
19:30 57.5 °F 44.6 °F 29.90 in SE 5 mph 5 mph 62% 0.00 in 14 W/m2
19:35 57.3 °F 45.2 °F 29.89 in SE 5 mph 5 mph 64% 0.00 in 11 W/m2
19:40 57.1 °F 44.6 °F 29.89 in SE 6 mph 6 mph 63% 0.00 in 5 W/m2
19:45 56.8 °F 44.7 °F 29.89 in SSE 5 mph 6 mph 64% 0.00 in 0 W/m2
19:50 56.5 °F 44.5 °F 29.89 in ESE 5 mph 5 mph 64% 0.00 in 0 W/m2
19:55 56.4 °F 44.8 °F 29.89 in SE 5 mph 5 mph 65% 0.00 in 0 W/m2
20:00 56.1 °F 44.5 °F 29.88 in SE 4 mph 5 mph 65% 0.00 in 0 W/m2
20:05 56.2 °F 44.2 °F 29.88 in SE 4 mph 5 mph 64% 0.00 in 0 W/m2
20:10 56.1 °F 44.5 °F 29.88 in SSE 4 mph 5 mph 65% 0.00 in 0 W/m2
20:15 55.8 °F 45 °F 29.88 in SE 4 mph 5 mph 67% 0.00 in 0 W/m2
20:20 55.4 °F 44.6 °F 29.88 in SE 4 mph 4 mph 67% 0.00 in 0 W/m2
20:25 55.2 °F 44.8 °F 29.88 in ESE 3 mph 4 mph 68% 0.00 in 0 W/m2
20:30 55.1 °F 44.3 °F 29.88 in SSE 3 mph 3 mph 67% 0.00 in 0 W/m2
20:35 54.7 °F 44.7 °F 29.88 in SE 3 mph 5 mph 69% 0.00 in 0 W/m2
20:40 54.6 °F 45 °F 29.89 in SE 4 mph 7 mph 70% 0.00 in 0 W/m2
20:45 54.6 °F 44.2 °F 29.89 in SE 5 mph 7 mph 68% 0.00 in 0 W/m2
20:50 54.6 °F 44.6 °F 29.89 in SE 5 mph 5 mph 69% 0.00 in 0 W/m2
20:55 54.5 °F 44.2 °F 29.89 in SE 5 mph 7 mph 68% 0.00 in 0 W/m2
21:00 54.6 °F 44.2 °F 29.89 in SE 5 mph 5 mph 68% 0.00 in 0 W/m2
21:05 54.7 °F 44.3 °F 29.89 in SE 5 mph 5 mph 68% 0.00 in 0 W/m2
21:10 54.8 °F 44 °F 29.89 in SE 5 mph 5 mph 67% 0.00 in 0 W/m2
21:15 55.1 °F 44.3 °F 29.89 in SE 5 mph 7 mph 67% 0.00 in 0 W/m2
21:20 55 °F 44.6 °F 29.89 in ESE 5 mph 5 mph 68% 0.00 in 0 W/m2
21:25 55.1 °F 43.9 °F 29.89 in SE 6 mph 6 mph 66% 0.00 in 0 W/m2
21:30 55.3 °F 43.7 °F 29.89 in SSE 5 mph 5 mph 65% 0.00 in 0 W/m2
21:35 55.4 °F 44.6 °F 29.89 in SE 4 mph 5 mph 67% 0.00 in 0 W/m2
21:40 55 °F 43.4 °F 29.89 in SE 4 mph 4 mph 65% 0.00 in 0 W/m2
21:45 55.4 °F 43.8 °F 29.89 in SE 4 mph 5 mph 65% 0.00 in 0 W/m2
21:50 55.6 °F 43.6 °F 29.89 in SE 4 mph 4 mph 64% 0.00 in 0 W/m2
21:55 55.6 °F 44 °F 29.89 in SE 5 mph 7 mph 65% 0.00 in 0 W/m2
22:00 55.6 °F 43.6 °F 29.90 in SSE 5 mph 5 mph 64% 0.00 in 0 W/m2
22:05 55.5 °F 43.9 °F 29.90 in SSE 5 mph 5 mph 65% 0.00 in 0 W/m2
22:10 55.2 °F 42.8 °F 29.89 in SE 4 mph 5 mph 63% 0.00 in 0 W/m2
22:15 55.5 °F 43.5 °F 29.89 in ESE 4 mph 5 mph 64% 0.00 in 0 W/m2
22:20 55.5 °F 43.1 °F 29.89 in NE 4 mph 4 mph 63% 0.00 in 0 W/m2
22:25 55.7 °F 42.9 °F 29.89 in SSE 4 mph 5 mph 62% 0.00 in 0 W/m2
22:30 55.7 °F 42.9 °F 29.89 in ESE 4 mph 4 mph 62% 0.00 in 0 W/m2
22:35 55.9 °F 42.6 °F 29.89 in SSE 4 mph 7 mph 61% 0.00 in 0 W/m2
22:40 55.9 °F 42.6 °F 29.89 in West 4 mph 4 mph 61% 0.00 in 0 W/m2
22:45 55.9 °F 42.6 °F 29.89 in NW 4 mph 4 mph 61% 0.00 in 0 W/m2
22:50 55.7 °F 42.5 °F 29.89 in ESE 4 mph 4 mph 61% 0.00 in 0 W/m2
22:55 55.7 °F 42.5 °F 29.89 in East 5 mph 7 mph 61% 0.00 in 0 W/m2
23:00 55.3 °F 42.5 °F 29.89 in West 5 mph 5 mph 62% 0.00 in 0 W/m2
23:05 55.1 °F 42.3 °F 29.89 in SE 4 mph 5 mph 62% 0.00 in 0 W/m2
23:10 55.1 °F 41.9 °F 29.89 in ENE 4 mph 4 mph 61% 0.00 in 0 W/m2
23:15 55.2 °F 42.4 °F 29.89 in SSE 4 mph 5 mph 62% 0.00 in 0 W/m2
23:20 55.2 °F 42.4 °F 29.89 in WNW 4 mph 4 mph 62% 0.00 in 0 W/m2
23:25 55.1 °F 42.3 °F 29.89 in West 4 mph 4 mph 62% 0.00 in 0 W/m2
23:30 55.1 °F 42.3 °F 29.89 in SSE 4 mph 4 mph 62% 0.00 in 0 W/m2
23:35 54.7 °F 42.3 °F 29.89 in NNW 3 mph 4 mph 63% 0.00 in 0 W/m2
23:40 54.2 °F 41.9 °F 29.89 in SW 3 mph 3 mph 63% 0.00 in 0 W/m2
23:45 54.2 °F 41.9 °F 29.89 in WNW 3 mph 4 mph 63% 0.00 in 0 W/m2
23:50 54 °F 41.7 °F 29.89 in SSW 3 mph 3 mph 63% 0.00 in 0 W/m2
23:55 54 °F 42.1 °F 29.89 in ESE 3 mph 3 mph 64% 0.00 in 0 W/m2
Sand Point, Michigan, USA
Compliments of Weather Underground - 2 mb